createdAt,value
2016-07-10T00:00:48.367Z,0
2016-07-10T00:01:48.387Z,0
2016-07-10T00:02:48.406Z,0
2016-07-10T00:03:48.422Z,0
2016-07-10T00:04:48.456Z,0
2016-07-10T00:05:48.477Z,0
2016-07-10T00:06:48.490Z,0
2016-07-10T00:07:48.508Z,0
2016-07-10T00:08:48.531Z,0
2016-07-10T00:09:48.559Z,0
2016-07-10T00:10:48.567Z,0
2016-07-10T00:11:48.604Z,0
2016-07-10T00:12:48.624Z,0
2016-07-10T00:13:48.649Z,0
2016-07-10T00:14:48.674Z,0
2016-07-10T00:15:48.684Z,0
2016-07-10T00:16:48.709Z,0
2016-07-10T00:17:48.720Z,0
2016-07-10T00:18:48.756Z,0
2016-07-10T00:19:48.760Z,0
2016-07-10T00:20:48.788Z,0
2016-07-10T00:21:48.809Z,0
2016-07-10T00:22:48.834Z,0
2016-07-10T00:23:48.853Z,0
2016-07-10T00:24:48.877Z,0
2016-07-10T00:25:48.891Z,0
2016-07-10T00:26:48.914Z,0
2016-07-10T00:27:48.934Z,0
2016-07-10T00:28:48.961Z,0
2016-07-10T00:29:48.973Z,0
2016-07-10T00:30:48.994Z,0
2016-07-10T00:31:49.017Z,0
2016-07-10T00:32:49.044Z,0
2016-07-10T00:33:49.055Z,0
2016-07-10T00:34:49.081Z,0
2016-07-10T00:35:49.106Z,0
2016-07-10T00:36:49.124Z,0
2016-07-10T00:37:49.155Z,0
2016-07-10T00:38:49.159Z,0
2016-07-10T00:39:49.191Z,0
2016-07-10T00:40:49.211Z,0
2016-07-10T00:41:49.238Z,0
2016-07-10T00:42:49.294Z,0
2016-07-10T00:43:49.268Z,0
2016-07-10T00:44:49.288Z,0
2016-07-10T00:45:49.305Z,0
2016-07-10T00:46:49.342Z,0
2016-07-10T00:47:49.348Z,0
2016-07-10T00:48:49.381Z,0
2016-07-10T00:49:49.391Z,0
2016-07-10T00:50:49.414Z,0
2016-07-10T00:51:49.435Z,0
2016-07-10T00:52:49.462Z,0
2016-07-10T00:53:49.472Z,0
2016-07-10T00:54:49.498Z,0
2016-07-10T00:55:49.530Z,0
2016-07-10T00:56:49.542Z,0
2016-07-10T00:57:49.561Z,0
2016-07-10T00:58:49.587Z,0
2016-07-10T00:59:49.609Z,0
2016-07-10T01:00:49.619Z,0
2016-07-10T01:01:49.655Z,0
2016-07-10T01:02:49.674Z,0
2016-07-10T01:03:49.685Z,0
2016-07-10T01:04:49.708Z,0
2016-07-10T01:05:49.729Z,0
2016-07-10T01:06:49.758Z,0
2016-07-10T01:07:49.770Z,0
2016-07-10T01:08:49.794Z,0
2016-07-10T01:09:49.819Z,0
2016-07-10T01:10:49.838Z,0
2016-07-10T01:11:49.851Z,0
2016-07-10T01:12:49.875Z,0
2016-07-10T01:13:49.895Z,0
2016-07-10T01:14:49.922Z,0
2016-07-10T01:15:49.937Z,0
2016-07-10T01:16:49.970Z,0
2016-07-10T01:17:49.980Z,0
2016-07-10T01:18:50.005Z,0
2016-07-10T01:19:50.027Z,0
2016-07-10T01:20:50.056Z,0
2016-07-10T01:21:50.075Z,0
2016-07-10T01:22:50.092Z,0
2016-07-10T01:23:50.102Z,0
2016-07-10T01:24:50.140Z,0
2016-07-10T01:25:50.156Z,0
2016-07-10T01:26:50.165Z,0
2016-07-10T01:27:50.204Z,0
2016-07-10T01:28:50.215Z,0
2016-07-10T01:29:50.236Z,0
2016-07-10T01:30:50.254Z,0
2016-07-10T01:31:50.271Z,0
2016-07-10T01:32:50.298Z,0
2016-07-10T01:33:50.327Z,0
2016-07-10T01:34:50.339Z,0
2016-07-10T01:35:50.367Z,0
2016-07-10T01:36:50.383Z,0
2016-07-10T01:37:50.397Z,0
2016-07-10T01:38:50.423Z,0
2016-07-10T01:39:50.432Z,0
2016-07-10T01:40:50.463Z,0
2016-07-10T01:41:50.486Z,0
2016-07-10T01:42:50.502Z,0
2016-07-10T01:43:50.524Z,0
2016-07-10T01:44:50.546Z,0
2016-07-10T01:45:50.561Z,0
2016-07-10T01:46:50.587Z,0
2016-07-10T01:47:50.605Z,0
2016-07-10T01:48:50.634Z,0
2016-07-10T01:49:50.659Z,0
2016-07-10T01:50:50.664Z,0
2016-07-10T01:51:50.690Z,0
2016-07-10T01:52:50.719Z,0
2016-07-10T01:53:50.744Z,0
2016-07-10T01:54:50.764Z,0
2016-07-10T01:55:50.769Z,0
2016-07-10T01:56:50.797Z,0
2016-07-10T01:57:50.813Z,0
2016-07-10T01:58:50.852Z,0
2016-07-10T01:59:50.862Z,0
2016-07-10T02:00:50.889Z,0
2016-07-10T02:01:50.906Z,0
2016-07-10T02:02:50.936Z,0
2016-07-10T02:03:50.948Z,0
2016-07-10T02:04:50.973Z,0
2016-07-10T02:05:50.972Z,0
2016-07-10T02:06:51.000Z,0
2016-07-10T02:07:51.021Z,0
2016-07-10T02:08:51.052Z,0
2016-07-10T02:09:51.057Z,0
2016-07-10T02:10:51.106Z,0
2016-07-10T02:11:51.108Z,0
2016-07-10T02:12:51.130Z,0
2016-07-10T02:13:51.154Z,0
2016-07-10T02:14:51.167Z,0
2016-07-10T02:15:51.197Z,0
2016-07-10T02:16:51.211Z,0
2016-07-10T02:17:51.225Z,0
2016-07-10T02:18:51.253Z,0
2016-07-10T02:19:51.266Z,0
2016-07-10T02:20:51.300Z,0
2016-07-10T02:21:51.312Z,0
2016-07-10T02:22:51.338Z,0
2016-07-10T02:23:51.353Z,0
2016-07-10T02:24:51.379Z,0
2016-07-10T02:25:51.402Z,0
2016-07-10T02:26:51.421Z,0
2016-07-10T02:27:51.438Z,0
2016-07-10T02:28:51.472Z,0
2016-07-10T02:29:51.480Z,0
2016-07-10T02:30:51.492Z,0
2016-07-10T02:31:51.525Z,0
2016-07-10T02:32:51.538Z,0
2016-07-10T02:33:51.571Z,0
2016-07-10T02:34:51.585Z,0
2016-07-10T02:35:51.600Z,0
2016-07-10T02:36:51.635Z,0
2016-07-10T02:37:51.661Z,0
2016-07-10T02:38:51.672Z,4
2016-07-10T02:39:51.685Z,4
2016-07-10T02:40:51.717Z,4
2016-07-10T02:41:51.738Z,4
2016-07-10T02:42:51.788Z,0
2016-07-10T02:43:51.824Z,4
2016-07-10T02:44:51.849Z,4
2016-07-10T02:45:51.864Z,4
2016-07-10T02:46:51.832Z,8
2016-07-10T02:47:51.853Z,4
2016-07-10T02:48:51.872Z,4
2016-07-10T02:49:51.910Z,8
2016-07-10T02:50:51.919Z,8
2016-07-10T02:51:51.946Z,8
2016-07-10T02:52:52.002Z,8
2016-07-10T02:53:52.033Z,12
2016-07-10T02:54:52.052Z,12
2016-07-10T02:55:52.019Z,12
2016-07-10T02:56:52.042Z,12
2016-07-10T02:57:52.068Z,20
2016-07-10T02:58:52.088Z,20
2016-07-10T02:59:52.109Z,20
2016-07-10T03:00:52.122Z,24
2016-07-10T03:01:52.151Z,28
2016-07-10T03:02:52.164Z,32
2016-07-10T03:03:52.199Z,36
2016-07-10T03:04:52.214Z,40
2016-07-10T03:05:52.225Z,40
2016-07-10T03:06:52.248Z,44
2016-07-10T03:07:52.267Z,52
2016-07-10T03:08:52.296Z,56
2016-07-10T03:09:52.320Z,60
2016-07-10T03:10:52.324Z,72
2016-07-10T03:11:52.357Z,76
2016-07-10T03:12:52.382Z,84
2016-07-10T03:13:52.388Z,92
2016-07-10T03:14:52.415Z,100
2016-07-10T03:15:52.434Z,108
2016-07-10T03:16:52.446Z,124
2016-07-10T03:17:52.472Z,136
2016-07-10T03:18:52.493Z,148
2016-07-10T03:19:52.522Z,160
2016-07-10T03:20:52.545Z,172
2016-07-10T03:21:52.550Z,188
2016-07-10T03:22:52.578Z,204
2016-07-10T03:23:52.599Z,220
2016-07-10T03:24:52.623Z,236
2016-07-10T03:25:52.639Z,248
2016-07-10T03:26:52.661Z,268
2016-07-10T03:27:52.680Z,288
2016-07-10T03:28:52.710Z,308
2016-07-10T03:29:52.716Z,324
2016-07-10T03:30:52.754Z,348
2016-07-10T03:31:52.755Z,372
2016-07-10T03:32:52.783Z,396
2016-07-10T03:33:52.798Z,428
2016-07-10T03:34:52.832Z,456
2016-07-10T03:35:52.838Z,488
2016-07-10T03:36:52.864Z,516
2016-07-10T03:37:52.896Z,548
2016-07-10T03:38:52.903Z,580
2016-07-10T03:39:52.931Z,612
2016-07-10T03:40:52.969Z,648
2016-07-10T03:41:52.971Z,684
2016-07-10T03:42:52.998Z,712
2016-07-10T03:43:53.014Z,740
2016-07-10T03:44:53.031Z,776
2016-07-10T03:45:53.061Z,812
2016-07-10T03:46:53.078Z,852
2016-07-10T03:47:53.095Z,892
2016-07-10T03:48:53.116Z,936
2016-07-10T03:49:53.136Z,980
2016-07-10T03:50:53.157Z,1020
2016-07-10T03:51:53.176Z,1056
2016-07-10T03:52:53.207Z,1096
2016-07-10T03:53:53.213Z,1132
2016-07-10T03:54:53.242Z,1164
2016-07-10T03:55:53.254Z,1200
2016-07-10T03:56:53.291Z,1220
2016-07-10T03:57:53.299Z,1236
2016-07-10T03:58:53.321Z,1260
2016-07-10T03:59:53.342Z,1284
2016-07-10T04:00:53.358Z,1304
2016-07-10T04:01:53.380Z,1332
2016-07-10T04:02:53.404Z,1364
2016-07-10T04:03:53.422Z,1384
2016-07-10T04:04:53.438Z,1412
2016-07-10T04:05:53.460Z,1464
2016-07-10T04:06:53.487Z,1540
2016-07-10T04:07:53.522Z,1636
2016-07-10T04:08:53.548Z,1692
2016-07-10T04:09:53.549Z,1724
2016-07-10T04:10:53.574Z,1752
2016-07-10T04:11:53.603Z,1768
2016-07-10T04:12:53.623Z,1832
2016-07-10T04:13:53.641Z,1872
2016-07-10T04:14:53.655Z,1928
2016-07-10T04:15:53.670Z,1996
2016-07-10T04:16:53.703Z,2068
2016-07-10T04:17:53.708Z,2104
2016-07-10T04:18:53.746Z,2196
2016-07-10T04:19:53.756Z,2240
2016-07-10T04:20:53.793Z,2316
2016-07-10T04:21:53.803Z,2328
2016-07-10T04:22:53.824Z,2252
2016-07-10T04:23:53.837Z,2084
2016-07-10T04:24:53.866Z,2056
2016-07-10T04:25:53.888Z,2136
2016-07-10T04:26:53.903Z,2128
2016-07-10T04:27:53.922Z,2132
2016-07-10T04:28:53.947Z,2160
2016-07-10T04:29:53.972Z,2164
2016-07-10T04:30:53.990Z,2168
2016-07-10T04:31:54.010Z,2268
2016-07-10T04:32:54.057Z,2288
2016-07-10T04:33:54.069Z,2312
2016-07-10T04:34:54.075Z,2360
2016-07-10T04:35:54.095Z,2424
2016-07-10T04:36:54.129Z,2480
2016-07-10T04:37:54.149Z,2556
2016-07-10T04:38:54.163Z,2592
2016-07-10T04:39:54.186Z,2664
2016-07-10T04:40:54.200Z,2740
2016-07-10T04:41:54.220Z,2832
2016-07-10T04:42:54.250Z,2900
2016-07-10T04:43:54.268Z,2980
2016-07-10T04:44:54.288Z,3084
2016-07-10T04:45:54.302Z,3196
2016-07-10T04:46:54.335Z,3304
2016-07-10T04:47:54.349Z,3392
2016-07-10T04:48:54.371Z,3432
2016-07-10T04:49:54.392Z,3504
2016-07-10T04:50:54.423Z,3456
2016-07-10T04:51:54.440Z,3456
2016-07-10T04:52:54.447Z,3416
2016-07-10T04:53:54.475Z,3424
2016-07-10T04:54:54.498Z,3444
2016-07-10T04:55:54.514Z,3468
2016-07-10T04:56:54.560Z,3500
2016-07-10T04:57:54.554Z,3580
2016-07-10T04:58:54.592Z,3584
2016-07-10T04:59:54.600Z,3608
2016-07-10T05:00:54.631Z,3612
2016-07-10T05:01:54.649Z,3592
2016-07-10T05:02:54.672Z,3580
2016-07-10T05:03:54.681Z,3552
2016-07-10T05:04:54.718Z,3512
2016-07-10T05:05:54.730Z,3476
2016-07-10T05:06:54.764Z,3460
2016-07-10T05:07:54.774Z,3448
2016-07-10T05:08:54.800Z,3444
2016-07-10T05:09:54.810Z,3480
2016-07-10T05:10:54.852Z,3536
2016-07-10T05:11:54.860Z,3584
2016-07-10T05:12:54.886Z,3580
2016-07-10T05:13:54.900Z,3620
2016-07-10T05:14:54.941Z,3688
2016-07-10T05:15:54.958Z,3784
2016-07-10T05:16:54.959Z,3732
2016-07-10T05:17:55.002Z,3468
2016-07-10T05:18:55.021Z,3600
2016-07-10T05:19:55.048Z,3644
2016-07-10T05:20:55.059Z,3516
2016-07-10T05:21:55.075Z,3584
2016-07-10T05:22:55.104Z,3920
2016-07-10T05:23:55.126Z,3792
2016-07-10T05:24:55.139Z,4260
2016-07-10T05:25:55.163Z,4496
2016-07-10T05:26:55.188Z,4596
2016-07-10T05:27:55.208Z,4536
2016-07-10T05:28:55.230Z,4820
2016-07-10T05:29:55.248Z,5228
2016-07-10T05:30:55.276Z,4988
2016-07-10T05:31:55.297Z,5048
2016-07-10T05:32:55.316Z,5180
2016-07-10T05:33:55.334Z,5172
2016-07-10T05:34:55.370Z,5388
2016-07-10T05:35:55.379Z,5512
2016-07-10T05:36:55.412Z,5668
2016-07-10T05:37:55.444Z,5828
2016-07-10T05:38:55.450Z,5536
2016-07-10T05:39:55.472Z,5456
2016-07-10T05:40:55.495Z,5644
2016-07-10T05:41:55.528Z,5788
2016-07-10T05:42:55.542Z,5896
2016-07-10T05:43:55.565Z,4896
2016-07-10T05:44:55.597Z,6244
2016-07-10T05:45:55.602Z,5072
2016-07-10T05:46:55.631Z,6292
2016-07-10T05:47:55.658Z,6264
2016-07-10T05:48:55.689Z,6880
2016-07-10T05:49:55.694Z,7084
2016-07-10T05:50:55.725Z,5592
2016-07-10T05:51:55.744Z,5524
2016-07-10T05:52:55.768Z,5948
2016-07-10T05:53:55.779Z,6228
2016-07-10T05:54:55.808Z,7376
2016-07-10T05:55:55.831Z,7288
2016-07-10T05:56:55.854Z,7616
2016-07-10T05:57:55.876Z,7676
2016-07-10T05:58:55.892Z,7972
2016-07-10T05:59:55.917Z,7416
2016-07-10T06:00:55.947Z,6192
2016-07-10T06:01:55.971Z,6592
2016-07-10T06:02:55.996Z,7372
2016-07-10T06:03:56.009Z,6812
2016-07-10T06:04:56.037Z,7768
2016-07-10T06:05:56.069Z,6896
2016-07-10T06:06:56.096Z,6808
2016-07-10T06:07:56.100Z,8396
2016-07-10T06:08:56.124Z,7616
2016-07-10T06:09:56.151Z,7784
2016-07-10T06:10:56.173Z,8500
2016-07-10T06:11:56.201Z,8384
2016-07-10T06:12:56.225Z,8208
2016-07-10T06:13:56.243Z,8224
2016-07-10T06:14:56.261Z,7980
2016-07-10T06:15:56.291Z,8372
2016-07-10T06:16:56.340Z,7868
2016-07-10T06:17:56.330Z,6260
2016-07-10T06:18:56.369Z,7252
2016-07-10T06:19:56.390Z,8040
2016-07-10T06:20:56.420Z,8168
2016-07-10T06:21:56.427Z,7372
2016-07-10T06:22:56.449Z,8664
2016-07-10T06:23:56.484Z,8708
2016-07-10T06:24:56.496Z,8644
2016-07-10T06:25:56.520Z,8556
2016-07-10T06:26:56.547Z,8616
2016-07-10T06:27:56.587Z,8572
2016-07-10T06:28:56.589Z,8540
2016-07-10T06:29:56.635Z,8504
2016-07-10T06:30:56.634Z,7740
2016-07-10T06:31:56.672Z,8480
2016-07-10T06:32:56.686Z,8308
2016-07-10T06:33:56.717Z,8068
2016-07-10T06:34:56.738Z,8240
2016-07-10T06:35:56.773Z,7876
2016-07-10T06:36:56.787Z,8520
2016-07-10T06:37:56.811Z,8456
2016-07-10T06:38:56.837Z,8520
2016-07-10T06:39:56.855Z,8536
2016-07-10T06:40:56.880Z,8336
2016-07-10T06:41:56.917Z,8496
2016-07-10T06:42:56.928Z,8556
2016-07-10T06:43:56.962Z,8640
2016-07-10T06:44:56.978Z,8676
2016-07-10T06:45:57.010Z,8480
2016-07-10T06:46:57.030Z,8624
2016-07-10T06:47:57.054Z,8648
2016-07-10T06:48:57.073Z,8552
2016-07-10T06:49:57.098Z,8520
2016-07-10T06:50:57.138Z,8416
2016-07-10T06:51:57.151Z,8080
2016-07-10T06:52:57.177Z,7572
2016-07-10T06:53:57.194Z,8060
2016-07-10T06:54:57.232Z,7512
2016-07-10T06:55:57.243Z,7524
2016-07-10T06:56:57.271Z,7744
2016-07-10T06:57:57.293Z,7888
2016-07-10T06:58:57.318Z,7780
2016-07-10T06:59:57.348Z,7744
2016-07-10T07:00:57.372Z,7544
2016-07-10T07:01:57.396Z,7444
2016-07-10T07:02:57.415Z,6952
2016-07-10T07:03:57.448Z,5948
2016-07-10T07:04:57.478Z,5748
2016-07-10T07:05:57.485Z,5836
2016-07-10T07:06:57.516Z,6780
2016-07-10T07:07:57.538Z,7176
2016-07-10T07:08:57.571Z,6212
2016-07-10T07:09:57.580Z,6168
2016-07-10T07:10:57.619Z,6892
2016-07-10T07:11:57.627Z,6580
2016-07-10T07:12:57.664Z,7284
2016-07-10T07:13:57.684Z,6704
2016-07-10T07:14:57.706Z,6828
2016-07-10T07:15:57.744Z,6672
2016-07-10T07:16:57.757Z,6392
2016-07-10T07:17:57.788Z,7988
2016-07-10T07:18:57.797Z,7024
2016-07-10T07:19:57.840Z,6588
2016-07-10T07:20:57.858Z,7560
2016-07-10T07:21:57.887Z,6196
2016-07-10T07:22:57.892Z,6288
2016-07-10T07:23:57.923Z,7304
2016-07-10T07:24:57.959Z,7652
2016-07-10T07:25:57.972Z,7724
2016-07-10T07:26:58.004Z,7572
2016-07-10T07:27:58.025Z,7496
2016-07-10T07:28:58.066Z,7628
2016-07-10T07:29:58.078Z,7700
2016-07-10T07:30:58.114Z,7748
2016-07-10T07:31:58.130Z,7796
2016-07-10T07:32:58.137Z,7832
2016-07-10T07:33:58.181Z,7856
2016-07-10T07:34:58.198Z,7868
2016-07-10T07:35:58.222Z,7876
2016-07-10T07:36:58.256Z,7896
2016-07-10T07:37:58.269Z,7900
2016-07-10T07:38:58.297Z,7908
2016-07-10T07:39:58.316Z,7936
2016-07-10T07:40:58.340Z,7932
2016-07-10T07:41:58.360Z,7036
2016-07-10T07:42:58.400Z,6492
2016-07-10T07:43:58.410Z,6140
2016-07-10T07:44:58.440Z,5508
2016-07-10T07:45:58.463Z,5352
2016-07-10T07:46:58.493Z,5700
2016-07-10T07:47:58.516Z,6128
2016-07-10T07:48:58.529Z,6044
2016-07-10T07:49:58.561Z,5864
2016-07-10T07:50:58.590Z,6472
2016-07-10T07:51:58.617Z,6112
2016-07-10T07:52:58.643Z,5764
2016-07-10T07:53:58.648Z,5924
2016-07-10T07:54:58.687Z,6924
2016-07-10T07:55:58.699Z,6280
2016-07-10T07:56:58.742Z,6976
2016-07-10T07:57:58.754Z,6148
2016-07-10T07:58:58.781Z,6160
2016-07-10T07:59:58.808Z,6888
2016-07-10T08:00:58.834Z,6580
2016-07-10T08:01:58.844Z,5768
2016-07-10T08:02:58.888Z,6360
2016-07-10T08:03:58.911Z,6080
2016-07-10T08:04:58.928Z,5800
2016-07-10T08:05:58.953Z,6560
2016-07-10T08:06:58.965Z,6760
2016-07-10T08:07:59.005Z,7244
2016-07-10T08:08:59.027Z,7616
2016-07-10T08:09:59.062Z,7240
2016-07-10T08:10:59.060Z,7236
2016-07-10T08:11:59.092Z,7360
2016-07-10T08:12:59.121Z,7336
2016-07-10T08:13:59.152Z,7208
2016-07-10T08:14:59.171Z,6392
2016-07-10T08:15:59.189Z,7084
2016-07-10T08:16:59.210Z,6736
2016-07-10T08:17:59.242Z,7324
2016-07-10T08:18:59.265Z,7612
2016-07-10T08:19:59.289Z,7448
2016-07-10T08:20:59.307Z,7588
2016-07-10T08:21:59.347Z,7852
2016-07-10T08:22:59.360Z,7844
2016-07-10T08:23:59.396Z,7684
2016-07-10T08:24:59.431Z,8040
2016-07-10T08:25:59.435Z,7220
2016-07-10T08:26:59.472Z,7596
2016-07-10T08:27:59.482Z,7452
2016-07-10T08:28:59.506Z,5212
2016-07-10T08:29:59.527Z,7300
2016-07-10T08:30:59.562Z,5236
2016-07-10T08:31:59.579Z,5412
2016-07-10T08:32:59.605Z,7280
2016-07-10T08:33:59.628Z,7012
2016-07-10T08:34:59.661Z,7648
2016-07-10T08:35:59.683Z,7560
2016-07-10T08:36:59.703Z,7128
2016-07-10T08:37:59.745Z,6680
2016-07-10T08:38:59.758Z,6252
2016-07-10T08:39:59.785Z,6036
2016-07-10T08:40:59.811Z,5852
2016-07-10T08:41:59.840Z,5816
2016-07-10T08:42:59.853Z,5980
2016-07-10T08:43:59.879Z,6232
2016-07-10T08:44:59.913Z,6732
2016-07-10T08:45:59.986Z,6952
2016-07-10T08:46:59.986Z,6612
2016-07-10T08:47:59.985Z,6476
2016-07-10T08:49:00.011Z,6292
2016-07-10T08:50:00.076Z,6596
2016-07-10T08:51:00.050Z,6292
2016-07-10T08:52:00.077Z,6320
2016-07-10T08:53:00.109Z,5948
2016-07-10T08:54:00.135Z,6068
2016-07-10T08:55:00.188Z,6540
2016-07-10T08:56:00.194Z,6784
2016-07-10T08:57:00.202Z,7036
2016-07-10T08:58:00.267Z,7144
2016-07-10T08:59:00.242Z,6996
2016-07-10T09:00:00.270Z,6832
2016-07-10T09:01:00.305Z,6888
2016-07-10T09:02:00.327Z,6928
2016-07-10T09:03:00.353Z,6872
2016-07-10T09:04:00.384Z,6744
2016-07-10T09:05:00.401Z,6632
2016-07-10T09:06:00.425Z,6764
2016-07-10T09:07:00.455Z,6648
2016-07-10T09:08:00.480Z,6580
2016-07-10T09:09:00.504Z,6828
2016-07-10T09:10:00.530Z,6936
2016-07-10T09:11:00.550Z,7204
2016-07-10T09:12:00.581Z,7248
2016-07-10T09:13:00.599Z,7336
2016-07-10T09:14:00.628Z,7428
2016-07-10T09:15:00.654Z,7556
2016-07-10T09:16:00.672Z,7640
2016-07-10T09:17:00.706Z,7680
2016-07-10T09:18:00.728Z,7792
2016-07-10T09:19:00.759Z,7976
2016-07-10T09:20:00.773Z,6780
2016-07-10T09:21:00.796Z,7396
2016-07-10T09:22:00.827Z,7304
2016-07-10T09:23:00.867Z,7240
2016-07-10T09:24:00.876Z,6600
2016-07-10T09:25:00.893Z,6964
2016-07-10T09:26:00.925Z,6648
2016-07-10T09:27:00.958Z,6300
2016-07-10T09:28:00.984Z,6544
2016-07-10T09:29:01.018Z,6784
2016-07-10T09:30:01.021Z,6992
2016-07-10T09:31:01.060Z,6908
2016-07-10T09:32:01.077Z,5972
2016-07-10T09:33:01.120Z,7272
2016-07-10T09:34:01.133Z,6272
2016-07-10T09:35:01.154Z,5720
2016-07-10T09:36:01.169Z,6948
2016-07-10T09:37:01.207Z,6136
2016-07-10T09:38:01.238Z,5280
2016-07-10T09:39:01.254Z,6440
2016-07-10T09:40:01.286Z,6584
2016-07-10T09:41:01.304Z,7296
2016-07-10T09:42:01.326Z,5584
2016-07-10T09:43:01.361Z,5388
2016-07-10T09:44:01.384Z,7400
2016-07-10T09:45:01.409Z,7044
2016-07-10T09:46:01.422Z,6004
2016-07-10T09:47:01.461Z,6888
2016-07-10T09:48:01.482Z,6988
2016-07-10T09:49:01.515Z,6228
2016-07-10T09:50:01.530Z,5612
2016-07-10T09:51:01.553Z,7192
2016-07-10T09:52:01.583Z,8016
2016-07-10T09:53:01.601Z,6376
2016-07-10T09:54:01.643Z,6520
2016-07-10T09:55:01.652Z,6852
2016-07-10T09:56:01.688Z,6884
2016-07-10T09:57:01.707Z,6204
2016-07-10T09:58:01.735Z,7596
2016-07-10T09:59:01.758Z,6900
2016-07-10T10:00:01.787Z,7160
2016-07-10T10:01:01.803Z,5720
2016-07-10T10:02:01.829Z,5704
2016-07-10T10:03:01.865Z,6360
2016-07-10T10:04:01.892Z,6848
2016-07-10T10:05:01.903Z,6792
2016-07-10T10:06:01.930Z,6492
2016-07-10T10:07:01.956Z,6472
2016-07-10T10:08:01.981Z,7812
2016-07-10T10:09:02.003Z,8644
2016-07-10T10:10:02.036Z,8104
2016-07-10T10:11:02.045Z,8896
2016-07-10T10:12:02.084Z,9024
2016-07-10T10:13:02.098Z,8180
2016-07-10T10:14:02.135Z,6388
2016-07-10T10:15:02.166Z,5832
2016-07-10T10:16:02.174Z,7944
2016-07-10T10:17:02.224Z,8120
2016-07-10T10:18:02.230Z,7152
2016-07-10T10:19:02.258Z,5936
2016-07-10T10:20:02.285Z,5904
2016-07-10T10:21:02.319Z,8276
2016-07-10T10:22:02.328Z,5920
2016-07-10T10:23:02.370Z,8192
2016-07-10T10:24:02.382Z,8204
2016-07-10T10:25:02.418Z,5592
2016-07-10T10:26:02.442Z,6116
2016-07-10T10:27:02.461Z,5776
2016-07-10T10:28:02.490Z,9052
2016-07-10T10:29:02.515Z,9036
2016-07-10T10:30:02.545Z,6148
2016-07-10T10:31:02.569Z,5752
2016-07-10T10:32:02.593Z,5788
2016-07-10T10:33:02.620Z,7592
2016-07-10T10:34:02.640Z,7284
2016-07-10T10:35:02.673Z,8192
2016-07-10T10:36:02.693Z,5848
2016-07-10T10:37:02.779Z,5864
2016-07-10T10:38:02.744Z,7340
2016-07-10T10:39:02.767Z,7724
2016-07-10T10:40:02.807Z,7400
2016-07-10T10:41:02.821Z,6728
2016-07-10T10:42:02.857Z,6940
2016-07-10T10:43:02.874Z,6572
2016-07-10T10:44:02.901Z,7332
2016-07-10T10:45:02.924Z,7008
2016-07-10T10:46:02.953Z,6932
2016-07-10T10:47:02.972Z,7032
2016-07-10T10:48:03.008Z,8136
2016-07-10T10:49:03.027Z,9028
2016-07-10T10:50:03.044Z,7360
2016-07-10T10:51:03.080Z,7248
2016-07-10T10:52:03.108Z,7764
2016-07-10T10:53:03.128Z,7488
2016-07-10T10:54:03.150Z,7108
2016-07-10T10:55:03.179Z,7480
2016-07-10T10:56:03.208Z,8056
2016-07-10T10:57:03.231Z,9300
2016-07-10T10:58:03.266Z,9352
2016-07-10T10:59:03.271Z,9132
2016-07-10T11:00:03.313Z,6548
2016-07-10T11:01:03.332Z,6376
2016-07-10T11:02:03.363Z,6328
2016-07-10T11:03:03.374Z,6148
2016-07-10T11:04:03.414Z,6860
2016-07-10T11:05:03.443Z,6400
2016-07-10T11:06:03.450Z,6756
2016-07-10T11:07:03.490Z,7532
2016-07-10T11:08:03.510Z,9328
2016-07-10T11:09:03.553Z,9040
2016-07-10T11:10:03.567Z,9784
2016-07-10T11:11:03.598Z,7896
2016-07-10T11:12:03.630Z,7028
2016-07-10T11:13:03.649Z,9772
2016-07-10T11:14:03.665Z,9584
2016-07-10T11:15:03.689Z,9508
2016-07-10T11:16:03.719Z,9660
2016-07-10T11:17:03.741Z,9680
2016-07-10T11:18:03.766Z,9656
2016-07-10T11:19:03.795Z,9668
2016-07-10T11:20:03.827Z,9600
2016-07-10T11:21:03.848Z,9528
2016-07-10T11:22:03.873Z,9676
2016-07-10T11:23:03.901Z,9760
2016-07-10T11:24:03.930Z,9836
2016-07-10T11:25:03.940Z,9976
2016-07-10T11:26:03.976Z,10096
2016-07-10T11:27:04.019Z,10204
2016-07-10T11:28:04.024Z,10460
2016-07-10T11:29:04.057Z,10680
2016-07-10T11:30:04.086Z,11020
2016-07-10T11:31:04.107Z,11468
2016-07-10T11:32:04.136Z,11760
2016-07-10T11:33:04.158Z,12160
2016-07-10T11:34:04.190Z,12356
2016-07-10T11:35:04.219Z,11640
2016-07-10T11:36:04.239Z,11308
2016-07-10T11:37:04.268Z,11696
2016-07-10T11:38:04.301Z,12212
2016-07-10T11:39:04.322Z,12608
2016-07-10T11:40:04.341Z,12816
2016-07-10T11:41:04.376Z,12924
2016-07-10T11:42:04.394Z,12424
2016-07-10T11:43:04.423Z,11924
2016-07-10T11:44:04.459Z,12188
2016-07-10T11:45:04.483Z,13452
2016-07-10T11:46:04.516Z,12836
2016-07-10T11:47:04.525Z,14120
2016-07-10T11:48:04.568Z,13724
2016-07-10T11:49:04.579Z,13536
2016-07-10T11:50:04.611Z,13920
2016-07-10T11:51:04.632Z,13860
2016-07-10T11:52:04.673Z,13896
2016-07-10T11:53:04.702Z,13704
2016-07-10T11:54:04.721Z,13940
2016-07-10T11:55:04.747Z,13592
2016-07-10T11:56:04.772Z,13820
2016-07-10T11:57:04.825Z,13748
2016-07-10T11:58:04.823Z,13708
2016-07-10T11:59:04.860Z,12696
2016-07-10T12:00:04.884Z,12608
2016-07-10T12:01:04.922Z,13248
2016-07-10T12:02:04.944Z,11776
2016-07-10T12:03:04.975Z,11508
2016-07-10T12:04:05.004Z,11636
2016-07-10T12:05:05.028Z,11744
2016-07-10T12:06:05.049Z,11644
2016-07-10T12:07:05.073Z,11940
2016-07-10T12:08:05.110Z,12204
2016-07-10T12:09:05.142Z,12356
2016-07-10T12:10:05.158Z,13352
2016-07-10T12:11:05.192Z,13912
2016-07-10T12:12:05.218Z,14496
2016-07-10T12:13:05.245Z,12844
2016-07-10T12:14:05.265Z,13376
2016-07-10T12:15:05.298Z,13696
2016-07-10T12:16:05.317Z,14300
2016-07-10T12:17:05.350Z,14284
2016-07-10T12:18:05.377Z,14232
2016-07-10T12:19:05.401Z,14412
2016-07-10T12:20:05.438Z,13944
2016-07-10T12:21:05.455Z,13180
2016-07-10T12:22:05.485Z,12252
2016-07-10T12:23:05.516Z,11268
2016-07-10T12:24:05.549Z,10656
2016-07-10T12:25:05.584Z,9872
2016-07-10T12:26:05.602Z,9592
2016-07-10T12:27:05.622Z,9280
2016-07-10T12:28:05.660Z,8844
2016-07-10T12:29:05.689Z,8452
2016-07-10T12:30:05.705Z,8172
2016-07-10T12:31:05.743Z,7924
2016-07-10T12:32:05.771Z,7684
2016-07-10T12:33:05.787Z,7432
2016-07-10T12:34:05.820Z,7508
2016-07-10T12:35:05.838Z,7968
2016-07-10T12:36:05.879Z,8284
2016-07-10T12:37:05.891Z,8300
2016-07-10T12:38:05.933Z,7964
2016-07-10T12:39:05.943Z,7380
2016-07-10T12:40:05.990Z,6960
2016-07-10T12:41:06.001Z,6768
2016-07-10T12:42:06.038Z,6712
2016-07-10T12:43:06.052Z,6828
2016-07-10T12:44:06.087Z,6820
2016-07-10T12:45:06.113Z,6716
2016-07-10T12:46:06.143Z,6608
2016-07-10T12:47:06.172Z,6572
2016-07-10T12:48:06.190Z,6624
2016-07-10T12:49:06.219Z,6944
2016-07-10T12:50:06.243Z,7032
2016-07-10T12:51:06.282Z,7744
2016-07-10T12:52:06.303Z,8332
2016-07-10T12:53:06.332Z,8444
2016-07-10T12:54:06.358Z,10596
2016-07-10T12:55:06.393Z,12192
2016-07-10T12:56:06.408Z,12416
2016-07-10T12:57:06.437Z,11100
2016-07-10T12:58:06.464Z,8988
2016-07-10T12:59:06.492Z,9712
2016-07-10T13:00:06.514Z,10656
2016-07-10T13:01:06.547Z,10848
2016-07-10T13:02:06.554Z,9964
2016-07-10T13:03:06.570Z,10308
2016-07-10T13:04:06.604Z,9344
2016-07-10T13:05:06.628Z,9032
2016-07-10T13:06:06.668Z,10092
2016-07-10T13:07:06.682Z,10860
2016-07-10T13:08:06.716Z,11672
2016-07-10T13:09:06.736Z,12140
2016-07-10T13:10:06.779Z,12544
2016-07-10T13:11:06.794Z,12604
2016-07-10T13:12:06.834Z,12628
2016-07-10T13:13:06.843Z,12224
2016-07-10T13:14:06.877Z,12272
2016-07-10T13:15:06.912Z,12508
2016-07-10T13:16:06.932Z,12524
2016-07-10T13:17:06.951Z,12512
2016-07-10T13:18:06.982Z,12500
2016-07-10T13:19:07.031Z,12440
2016-07-10T13:20:07.040Z,12412
2016-07-10T13:21:07.076Z,12440
2016-07-10T13:22:07.105Z,11540
2016-07-10T13:23:07.129Z,9828
2016-07-10T13:24:07.151Z,8308
2016-07-10T13:25:07.187Z,7164
2016-07-10T13:26:07.220Z,6672
2016-07-10T13:27:07.224Z,6460
2016-07-10T13:28:07.263Z,6444
2016-07-10T13:29:07.289Z,6460
2016-07-10T13:30:07.328Z,6348
2016-07-10T13:31:07.340Z,6072
2016-07-10T13:32:07.376Z,5924
2016-07-10T13:33:07.404Z,6008
2016-07-10T13:34:07.429Z,6044
2016-07-10T13:35:07.459Z,6388
2016-07-10T13:36:07.479Z,6652